MDT,Max TemperatureF,Mean TemperatureF,Min TemperatureF,Max Dew PointF,MeanDew PointF,Min DewpointF,Max Humidity, Mean Humidity, Min Humidity, Max Sea Level PressureIn, Mean Sea Level PressureIn, Min Sea Level PressureIn, Max VisibilityMiles, Mean VisibilityMiles, Min VisibilityMiles, Max Wind SpeedMPH, Mean Wind SpeedMPH, Max Gust SpeedMPH,PrecipitationIn, CloudCover, Events, WindDirDegrees
2011-10-1,80,62,44,35,31,27,53,36,19,30.20,30.11,30.06,10,10,10,24,15,30,0.00,0,,168
2011-10-2,84,62,39,38,35,33,65,42,18,30.16,30.05,29.96,10,10,10,17,9,22,0.00,0,,154
2011-10-3,90,67,44,40,36,31,66,39,12,30.11,29.98,29.92,10,10,10,18,8,25,0.00,0,,198
2011-10-4,86,71,56,40,33,26,47,30,12,30.06,29.93,29.85,10,10,10,36,20,48,0.00,0,,181
2011-10-5,79,67,55,54,44,34,78,54,30,29.86,29.77,29.67,10,10,10,38,26,48,0.00,2,,170
2011-10-6,83,69,55,61,54,37,87,57,26,29.70,29.59,29.42,10,9,2,46,28,61,0.63,5,Rain-Thunderstorm,179
2011-10-7,75,61,46,59,41,28,90,56,22,29.90,29.77,29.65,10,10,10,24,11,32,0.06,3,,200
2011-10-8,64,54,43,57,51,39,100,74,48,30.08,29.86,29.72,10,9,4,33,16,39,0.85,6,Rain-Thunderstorm,164
2011-10-9,59,49,39,43,41,38,92,75,57,30.13,30.07,30.00,10,10,10,17,10,23,0.00,5,,292
2011-10-10,68,51,33,50,41,32,96,64,32,30.07,29.97,29.85,10,10,6,20,7,23,0.00,0,,182
2011-10-11,70,59,48,52,48,41,100,69,37,29.85,29.80,29.71,10,7,0,28,8,38,0.00,4,Fog,268
2011-10-12,66,53,39,40,35,30,76,51,26,30.10,29.93,29.76,10,10,10,32,17,40,0.00,0,,314
2011-10-13,76,56,36,36,31,26,82,49,16,30.09,29.98,29.86,10,10,10,16,7,21,0.00,0,,251
2011-10-14,65,50,35,35,32,27,82,54,26,30.14,30.06,29.95,10,10,10,14,6,17,0.00,0,,111
2011-10-15,86,67,47,38,32,27,60,37,13,30.08,29.93,29.78,10,10,10,24,16,35,0.00,0,,214
2011-10-16,64,51,38,39,33,27,79,53,26,30.16,30.04,29.76,10,10,10,23,10,30,0.00,0,,49
2011-10-17,54,44,34,45,38,32,100,75,50,30.26,30.08,29.92,10,10,6,29,13,39,0.33,5,Rain,313
2011-10-18,57,45,33,33,29,24,100,65,30,30.35,30.28,30.24,10,10,10,29,15,37,0.00,0,,323
2011-10-19,60,45,30,31,27,24,85,56,26,30.27,30.16,30.05,10,10,10,15,9,21,0.00,0,,306
2011-10-20,64,47,29,36,30,26,92,61,30,30.10,30.03,29.96,10,10,10,16,8,18,0.00,0,,180
2011-10-21,75,57,38,36,32,27,76,46,16,30.17,30.08,30.02,10,10,10,16,7,21,0.00,0,,214
2011-10-22,72,55,38,39,37,33,79,53,27,30.09,30.05,30.01,10,10,10,18,6,25,0.00,2,,351
2011-10-23,74,57,39,36,33,30,79,50,20,30.12,30.06,30.02,10,10,8,22,11,29,0.00,0,,255
2011-10-24,83,66,48,34,31,26,50,32,13,30.05,29.88,29.65,10,10,10,23,12,30,0.00,0,,199
2011-10-25,65,55,44,37,33,25,70,49,28,30.14,29.91,29.64,10,10,10,28,16,32,0.00,2,,348
2011-10-26,44,36,28,37,33,27,100,85,70,30.30,30.21,30.09,10,5,0,23,10,30,0.29,8,Fog-Rain-Snow,350
2011-10-27,49,36,22,30,25,21,92,65,38,30.27,30.22,30.15,10,10,10,13,7,16,0.00,0,,279
2011-10-28,56,41,26,27,23,19,78,52,26,30.35,30.27,30.17,10,10,10,17,7,22,0.00,0,,279
2011-10-29,72,52,32,29,25,16,72,42,12,30.14,29.97,29.81,10,10,10,26,11,33,0.00,0,,277
2011-10-30,62,48,33,32,28,26,89,58,27,30.25,30.16,30.05,10,10,10,18,9,22,0.00,0,,290
2011-10-31,75,54,32,32,30,25,76,47,17,30.12,29.96,29.83,10,10,10,25,10,30,0.00,0,,225